Elmira Corning Regional Airport
KELM : now visible

Airfield :











YOU CAN JOIN US ON...

 
LOGIN :

Register | Disclaimer

   EN    FR    IT 

 









Legend :    VFR   Marginal VFR   IFR   Intensive IFR   Very Intensive IFR
Visi :
Ceiling :
>= 8 km
>= 3000ft
5 to 8 km
1000 to 3000 ft
1500m to 5 km
500 to 1000 ft
800 to 1500m
200 to 500 ft
< 800m
< 200 ft
Symbols :   Thunderstorms  Fog  Heavy snow  Heavy precipitations  Wind > 20 kt






- Airport Elevation : 954 ft
- IATA code : ELM


KELM - Elmira Corning Regional

CURRENT METAR :
  • 230105Z 29011KT 1 1/2SM -SN BKN025 OVC042 M03/M08 A2991 RMK AO2 SNB0055 P0000 T10281078

EXPIRED METARs :
  • 230053Z 28018G24KT 8SM BKN039 OVC050 M02/M11 A2990 RMK AO2 SNE01 SLP136 P0000 T10171106
  • 222353Z 30009G14KT 9SM -SN BKN039 OVC050 M01/M09 A2988 RMK AO2 SNB42 SLP128 P0000 60000 T10111089 10033 21011 51026
  • 222253Z 31006KT 10SM OVC055 M01/M07 A2985 RMK AO2 SNB2158E39 SLP119 P0000 T10111067
  • 222225Z 28010KT 3SM -SN FEW021 BKN033 OVC060 M01/M06 A2984 RMK AO2 SNB2158 P0000 T10111061
  • 222213Z 28009G21KT 4SM -SN SCT028 BKN035 OVC055 M01/M06 A2984 RMK AO2 SNB2158 P0000 T10111061

TAF KELM
Valid from the 23 at 01:00 until the 24 at 00:00 UTC


230106Z 2301/2324 29010G17KT P6SM BKN035
TEMPO 2301/2303 2SM -SHSN OVC025
FM231300 30013G19KT P6SM BKN030
FM231700 31015G24KT P6SM OVC035
KZNY FIR / North America



MET'MAP, your aeronautical weather chart ! - Copyright ORBIFLY December 2007 - Disclaimer

ORBIFLY MET'MAP TEAM :

Programming & Development : Alexandra Zaïnal
Concept & original design : Baudouin d'Aumeries
Assistance for programming : Marc-Olivier Méhu
Technical & hardware support : Manuel Goepfert

Contact : metmap@orbifly.com




SOURCES & CREDITS :

   NOAA       Earth
Advisory